sensor_id;sensor_type;location;lat;lon;timestamp;P1;durP1;ratioP1;P2;durP2;ratioP2
28266;SDS011;15525;45.568;5.448;2023-09-07T00:01:15;11.32;;;8.65;;
28266;SDS011;15525;45.568;5.448;2023-09-07T00:03:41;12.90;;;8.57;;
28266;SDS011;15525;45.568;5.448;2023-09-07T00:06:07;15.68;;;8.30;;
28266;SDS011;15525;45.568;5.448;2023-09-07T00:08:33;13.60;;;8.50;;
28266;SDS011;15525;45.568;5.448;2023-09-07T00:11:04;11.30;;;8.13;;
28266;SDS011;15525;45.568;5.448;2023-09-07T00:13:31;11.77;;;8.23;;
28266;SDS011;15525;45.568;5.448;2023-09-07T00:15:59;13.77;;;7.82;;
28266;SDS011;15525;45.568;5.448;2023-09-07T00:18:26;11.57;;;8.23;;
28266;SDS011;15525;45.568;5.448;2023-09-07T00:20:52;11.05;;;7.93;;
28266;SDS011;15525;45.568;5.448;2023-09-07T00:23:17;9.38;;;7.53;;
28266;SDS011;15525;45.568;5.448;2023-09-07T00:25:44;12.75;;;7.97;;
28266;SDS011;15525;45.568;5.448;2023-09-07T00:28:10;11.57;;;8.30;;
28266;SDS011;15525;45.568;5.448;2023-09-07T00:30:35;13.25;;;8.20;;
28266;SDS011;15525;45.568;5.448;2023-09-07T00:33:01;13.10;;;8.07;;
28266;SDS011;15525;45.568;5.448;2023-09-07T00:35:26;12.23;;;7.68;;
28266;SDS011;15525;45.568;5.448;2023-09-07T00:37:51;14.20;;;7.82;;
28266;SDS011;15525;45.568;5.448;2023-09-07T00:40:17;9.90;;;7.53;;
28266;SDS011;15525;45.568;5.448;2023-09-07T00:42:42;14.82;;;7.70;;
28266;SDS011;15525;45.568;5.448;2023-09-07T00:45:08;12.35;;;7.40;;
28266;SDS011;15525;45.568;5.448;2023-09-07T00:47:34;11.02;;;7.45;;
28266;SDS011;15525;45.568;5.448;2023-09-07T00:50:03;11.85;;;7.85;;
28266;SDS011;15525;45.568;5.448;2023-09-07T00:52:30;11.77;;;7.82;;
28266;SDS011;15525;45.568;5.448;2023-09-07T00:54:56;9.82;;;7.40;;
28266;SDS011;15525;45.568;5.448;2023-09-07T00:57:21;10.80;;;7.45;;
28266;SDS011;15525;45.568;5.448;2023-09-07T00:59:47;9.80;;;7.25;;
28266;SDS011;15525;45.568;5.448;2023-09-07T01:02:12;9.77;;;7.32;;
28266;SDS011;15525;45.568;5.448;2023-09-07T01:04:38;14.77;;;7.65;;
28266;SDS011;15525;45.568;5.448;2023-09-07T01:07:07;11.07;;;8.23;;
28266;SDS011;15525;45.568;5.448;2023-09-07T01:09:39;13.73;;;8.23;;
28266;SDS011;15525;45.568;5.448;2023-09-07T01:12:06;11.02;;;7.22;;
28266;SDS011;15525;45.568;5.448;2023-09-07T01:14:35;13.25;;;8.10;;
28266;SDS011;15525;45.568;5.448;2023-09-07T01:17:01;10.20;;;7.82;;
28266;SDS011;15525;45.568;5.448;2023-09-07T01:19:28;11.85;;;7.50;;
28266;SDS011;15525;45.568;5.448;2023-09-07T01:21:55;9.23;;;6.82;;
28266;SDS011;15525;45.568;5.448;2023-09-07T01:24:20;10.68;;;8.15;;
28266;SDS011;15525;45.568;5.448;2023-09-07T01:26:47;12.35;;;7.55;;
28266;SDS011;15525;45.568;5.448;2023-09-07T01:29:14;10.68;;;8.10;;
28266;SDS011;15525;45.568;5.448;2023-09-07T01:31:41;11.80;;;8.60;;
28266;SDS011;15525;45.568;5.448;2023-09-07T01:34:07;13.30;;;8.13;;
28266;SDS011;15525;45.568;5.448;2023-09-07T01:36:33;11.48;;;8.20;;
28266;SDS011;15525;45.568;5.448;2023-09-07T01:39:00;15.60;;;8.48;;
28266;SDS011;15525;45.568;5.448;2023-09-07T01:41:25;11.55;;;8.00;;
28266;SDS011;15525;45.568;5.448;2023-09-07T01:43:51;11.70;;;8.25;;
28266;SDS011;15525;45.568;5.448;2023-09-07T01:46:17;10.90;;;8.23;;
28266;SDS011;15525;45.568;5.448;2023-09-07T01:48:45;12.80;;;8.25;;
28266;SDS011;15525;45.568;5.448;2023-09-07T01:51:10;17.33;;;7.97;;
28266;SDS011;15525;45.568;5.448;2023-09-07T01:53:36;10.15;;;8.35;;
28266;SDS011;15525;45.568;5.448;2023-09-07T01:56:01;11.48;;;7.80;;
28266;SDS011;15525;45.568;5.448;2023-09-07T01:58:26;9.73;;;7.75;;
28266;SDS011;15525;45.568;5.448;2023-09-07T02:00:52;11.38;;;8.07;;
28266;SDS011;15525;45.568;5.448;2023-09-07T02:03:22;12.55;;;7.90;;
28266;SDS011;15525;45.568;5.448;2023-09-07T02:05:47;11.80;;;7.90;;
28266;SDS011;15525;45.568;5.448;2023-09-07T02:08:12;12.25;;;7.13;;
28266;SDS011;15525;45.568;5.448;2023-09-07T02:10:38;11.55;;;7.00;;
28266;SDS011;15525;45.568;5.448;2023-09-07T02:13:04;10.95;;;7.20;;
28266;SDS011;15525;45.568;5.448;2023-09-07T02:15:29;11.48;;;7.57;;
28266;SDS011;15525;45.568;5.448;2023-09-07T02:17:55;10.57;;;7.05;;
28266;SDS011;15525;45.568;5.448;2023-09-07T02:20:20;9.70;;;6.88;;
28266;SDS011;15525;45.568;5.448;2023-09-07T02:22:46;10.57;;;7.60;;
28266;SDS011;15525;45.568;5.448;2023-09-07T02:25:11;13.18;;;7.75;;
28266;SDS011;15525;45.568;5.448;2023-09-07T02:27:37;9.30;;;7.13;;
28266;SDS011;15525;45.568;5.448;2023-09-07T02:30:03;10.13;;;7.60;;
28266;SDS011;15525;45.568;5.448;2023-09-07T02:32:29;10.05;;;8.15;;
28266;SDS011;15525;45.568;5.448;2023-09-07T02:34:55;10.48;;;7.80;;
28266;SDS011;15525;45.568;5.448;2023-09-07T02:37:20;12.88;;;7.80;;
28266;SDS011;15525;45.568;5.448;2023-09-07T02:39:46;13.60;;;8.10;;
28266;SDS011;15525;45.568;5.448;2023-09-07T02:42:11;11.75;;;8.48;;
28266;SDS011;15525;45.568;5.448;2023-09-07T02:44:37;9.50;;;7.35;;
28266;SDS011;15525;45.568;5.448;2023-09-07T02:47:03;12.75;;;7.95;;
28266;SDS011;15525;45.568;5.448;2023-09-07T02:49:29;9.95;;;7.28;;
28266;SDS011;15525;45.568;5.448;2023-09-07T02:51:54;9.25;;;7.47;;
28266;SDS011;15525;45.568;5.448;2023-09-07T02:54:20;11.27;;;7.40;;
28266;SDS011;15525;45.568;5.448;2023-09-07T02:56:45;12.13;;;8.55;;
28266;SDS011;15525;45.568;5.448;2023-09-07T02:59:10;11.73;;;7.78;;
28266;SDS011;15525;45.568;5.448;2023-09-07T03:01:37;10.27;;;7.80;;
28266;SDS011;15525;45.568;5.448;2023-09-07T03:04:04;11.98;;;7.85;;
28266;SDS011;15525;45.568;5.448;2023-09-07T03:06:30;10.05;;;8.05;;
28266;SDS011;15525;45.568;5.448;2023-09-07T03:08:55;10.20;;;7.50;;
28266;SDS011;15525;45.568;5.448;2023-09-07T03:11:22;9.25;;;7.30;;
28266;SDS011;15525;45.568;5.448;2023-09-07T03:13:47;11.35;;;7.47;;
28266;SDS011;15525;45.568;5.448;2023-09-07T03:16:13;9.18;;;7.60;;
28266;SDS011;15525;45.568;5.448;2023-09-07T03:18:38;10.95;;;8.05;;
28266;SDS011;15525;45.568;5.448;2023-09-07T03:21:04;9.57;;;7.85;;
28266;SDS011;15525;45.568;5.448;2023-09-07T03:23:30;10.30;;;7.38;;
28266;SDS011;15525;45.568;5.448;2023-09-07T03:25:57;10.57;;;8.00;;
28266;SDS011;15525;45.568;5.448;2023-09-07T03:28:23;8.35;;;6.97;;
28266;SDS011;15525;45.568;5.448;2023-09-07T03:30:50;12.60;;;7.75;;
28266;SDS011;15525;45.568;5.448;2023-09-07T03:33:15;11.38;;;7.90;;
28266;SDS011;15525;45.568;5.448;2023-09-07T03:35:41;9.75;;;7.85;;
28266;SDS011;15525;45.568;5.448;2023-09-07T03:38:06;11.13;;;7.75;;
28266;SDS011;15525;45.568;5.448;2023-09-07T03:40:32;10.90;;;8.05;;
28266;SDS011;15525;45.568;5.448;2023-09-07T03:42:57;9.65;;;7.63;;
28266;SDS011;15525;45.568;5.448;2023-09-07T03:45:28;11.27;;;8.27;;
28266;SDS011;15525;45.568;5.448;2023-09-07T03:47:53;11.55;;;8.20;;
28266;SDS011;15525;45.568;5.448;2023-09-07T03:50:19;12.60;;;7.93;;
28266;SDS011;15525;45.568;5.448;2023-09-07T03:52:44;12.52;;;7.47;;
28266;SDS011;15525;45.568;5.448;2023-09-07T03:55:10;10.65;;;8.27;;
28266;SDS011;15525;45.568;5.448;2023-09-07T03:57:35;11.93;;;8.18;;
28266;SDS011;15525;45.568;5.448;2023-09-07T04:00:01;11.85;;;8.25;;
28266;SDS011;15525;45.568;5.448;2023-09-07T04:02:32;12.73;;;8.00;;
28266;SDS011;15525;45.568;5.448;2023-09-07T04:04:57;11.73;;;7.60;;
28266;SDS011;15525;45.568;5.448;2023-09-07T04:07:23;9.95;;;7.90;;
28266;SDS011;15525;45.568;5.448;2023-09-07T04:09:49;11.90;;;7.55;;
28266;SDS011;15525;45.568;5.448;2023-09-07T04:12:15;9.75;;;8.07;;
28266;SDS011;15525;45.568;5.448;2023-09-07T04:14:40;12.68;;;9.57;;
28266;SDS011;15525;45.568;5.448;2023-09-07T04:17:07;12.88;;;9.30;;
28266;SDS011;15525;45.568;5.448;2023-09-07T04:19:32;15.27;;;10.23;;
28266;SDS011;15525;45.568;5.448;2023-09-07T04:21:58;14.55;;;10.93;;
28266;SDS011;15525;45.568;5.448;2023-09-07T04:24:24;17.20;;;10.48;;
28266;SDS011;15525;45.568;5.448;2023-09-07T04:26:50;11.52;;;9.30;;
28266;SDS011;15525;45.568;5.448;2023-09-07T04:29:15;14.10;;;8.80;;
28266;SDS011;15525;45.568;5.448;2023-09-07T04:31:41;10.93;;;8.40;;
28266;SDS011;15525;45.568;5.448;2023-09-07T04:34:07;13.27;;;8.43;;
28266;SDS011;15525;45.568;5.448;2023-09-07T04:36:32;12.80;;;8.70;;
28266;SDS011;15525;45.568;5.448;2023-09-07T04:38:58;13.35;;;8.43;;
28266;SDS011;15525;45.568;5.448;2023-09-07T04:41:23;15.57;;;8.52;;
28266;SDS011;15525;45.568;5.448;2023-09-07T04:43:49;16.92;;;8.98;;
28266;SDS011;15525;45.568;5.448;2023-09-07T04:46:14;17.58;;;9.30;;
28266;SDS011;15525;45.568;5.448;2023-09-07T04:48:40;16.73;;;8.88;;
28266;SDS011;15525;45.568;5.448;2023-09-07T04:51:07;17.90;;;8.68;;
28266;SDS011;15525;45.568;5.448;2023-09-07T04:53:34;13.65;;;8.15;;
28266;SDS011;15525;45.568;5.448;2023-09-07T04:56:01;13.93;;;8.10;;
28266;SDS011;15525;45.568;5.448;2023-09-07T04:58:28;16.00;;;9.43;;
28266;SDS011;15525;45.568;5.448;2023-09-07T05:00:53;11.75;;;8.73;;
28266;SDS011;15525;45.568;5.448;2023-09-07T05:03:19;13.00;;;9.05;;
28266;SDS011;15525;45.568;5.448;2023-09-07T05:05:44;12.45;;;8.43;;
28266;SDS011;15525;45.568;5.448;2023-09-07T05:08:10;14.38;;;9.40;;
28266;SDS011;15525;45.568;5.448;2023-09-07T05:10:36;13.98;;;9.00;;
28266;SDS011;15525;45.568;5.448;2023-09-07T05:13:02;15.40;;;9.75;;
28266;SDS011;15525;45.568;5.448;2023-09-07T05:15:27;16.40;;;10.20;;
28266;SDS011;15525;45.568;5.448;2023-09-07T05:17:53;18.83;;;11.20;;
28266;SDS011;15525;45.568;5.448;2023-09-07T05:20:19;14.73;;;10.32;;
28266;SDS011;15525;45.568;5.448;2023-09-07T05:22:44;21.65;;;11.32;;
28266;SDS011;15525;45.568;5.448;2023-09-07T05:25:10;18.40;;;11.65;;
28266;SDS011;15525;45.568;5.448;2023-09-07T05:27:36;21.05;;;11.20;;
28266;SDS011;15525;45.568;5.448;2023-09-07T05:30:02;24.13;;;11.02;;
28266;SDS011;15525;45.568;5.448;2023-09-07T05:32:28;21.20;;;10.80;;
28266;SDS011;15525;45.568;5.448;2023-09-07T05:34:54;20.45;;;11.00;;
28266;SDS011;15525;45.568;5.448;2023-09-07T05:37:19;24.75;;;10.50;;
28266;SDS011;15525;45.568;5.448;2023-09-07T05:39:45;20.27;;;10.10;;
28266;SDS011;15525;45.568;5.448;2023-09-07T05:42:10;15.82;;;8.98;;
28266;SDS011;15525;45.568;5.448;2023-09-07T05:44:37;15.95;;;9.50;;
28266;SDS011;15525;45.568;5.448;2023-09-07T05:47:03;15.85;;;10.15;;
28266;SDS011;15525;45.568;5.448;2023-09-07T05:49:29;15.70;;;10.02;;
28266;SDS011;15525;45.568;5.448;2023-09-07T05:51:54;17.33;;;9.35;;
28266;SDS011;15525;45.568;5.448;2023-09-07T05:54:20;17.13;;;9.38;;
28266;SDS011;15525;45.568;5.448;2023-09-07T05:56:45;18.30;;;9.35;;
28266;SDS011;15525;45.568;5.448;2023-09-07T05:59:11;15.90;;;10.07;;
28266;SDS011;15525;45.568;5.448;2023-09-07T06:01:36;14.85;;;9.32;;
28266;SDS011;15525;45.568;5.448;2023-09-07T06:04:01;24.00;;;11.00;;
28266;SDS011;15525;45.568;5.448;2023-09-07T06:06:28;17.60;;;10.27;;
28266;SDS011;15525;45.568;5.448;2023-09-07T06:08:54;16.95;;;9.88;;
28266;SDS011;15525;45.568;5.448;2023-09-07T06:11:19;15.98;;;9.95;;
28266;SDS011;15525;45.568;5.448;2023-09-07T06:13:45;19.08;;;10.38;;
28266;SDS011;15525;45.568;5.448;2023-09-07T06:16:12;16.45;;;9.75;;
28266;SDS011;15525;45.568;5.448;2023-09-07T06:18:37;17.10;;;10.40;;
28266;SDS011;15525;45.568;5.448;2023-09-07T06:21:03;13.95;;;10.30;;
28266;SDS011;15525;45.568;5.448;2023-09-07T06:23:30;15.32;;;9.52;;
28266;SDS011;15525;45.568;5.448;2023-09-07T06:25:56;16.70;;;10.18;;
28266;SDS011;15525;45.568;5.448;2023-09-07T06:28:22;18.83;;;9.77;;
28266;SDS011;15525;45.568;5.448;2023-09-07T06:30:47;14.93;;;9.77;;
28266;SDS011;15525;45.568;5.448;2023-09-07T06:33:13;14.32;;;9.63;;
28266;SDS011;15525;45.568;5.448;2023-09-07T06:35:38;15.75;;;9.45;;
28266;SDS011;15525;45.568;5.448;2023-09-07T06:38:04;15.65;;;10.35;;
28266;SDS011;15525;45.568;5.448;2023-09-07T06:40:30;14.30;;;9.90;;
28266;SDS011;15525;45.568;5.448;2023-09-07T06:42:55;14.10;;;10.13;;
28266;SDS011;15525;45.568;5.448;2023-09-07T06:45:22;17.52;;;10.30;;
28266;SDS011;15525;45.568;5.448;2023-09-07T06:47:52;19.50;;;10.63;;
28266;SDS011;15525;45.568;5.448;2023-09-07T06:50:17;19.85;;;9.80;;
28266;SDS011;15525;45.568;5.448;2023-09-07T06:52:43;14.25;;;10.13;;
28266;SDS011;15525;45.568;5.448;2023-09-07T06:55:09;14.43;;;10.10;;
28266;SDS011;15525;45.568;5.448;2023-09-07T06:57:35;14.55;;;10.05;;
28266;SDS011;15525;45.568;5.448;2023-09-07T07:00:02;12.85;;;8.98;;
28266;SDS011;15525;45.568;5.448;2023-09-07T07:02:31;14.18;;;9.27;;
28266;SDS011;15525;45.568;5.448;2023-09-07T07:04:58;14.93;;;9.98;;
28266;SDS011;15525;45.568;5.448;2023-09-07T07:07:23;14.98;;;9.98;;
28266;SDS011;15525;45.568;5.448;2023-09-07T07:09:49;18.20;;;10.25;;
28266;SDS011;15525;45.568;5.448;2023-09-07T07:12:15;13.80;;;9.73;;
28266;SDS011;15525;45.568;5.448;2023-09-07T07:14:41;13.88;;;9.90;;
28266;SDS011;15525;45.568;5.448;2023-09-07T07:17:06;14.50;;;9.68;;
28266;SDS011;15525;45.568;5.448;2023-09-07T07:19:32;15.52;;;9.13;;
28266;SDS011;15525;45.568;5.448;2023-09-07T07:21:57;13.48;;;8.68;;
28266;SDS011;15525;45.568;5.448;2023-09-07T07:24:22;14.55;;;8.65;;
28266;SDS011;15525;45.568;5.448;2023-09-07T07:26:48;12.55;;;7.85;;
28266;SDS011;15525;45.568;5.448;2023-09-07T07:29:13;9.52;;;7.57;;
28266;SDS011;15525;45.568;5.448;2023-09-07T07:31:39;12.45;;;7.68;;
28266;SDS011;15525;45.568;5.448;2023-09-07T07:34:04;12.07;;;7.95;;
28266;SDS011;15525;45.568;5.448;2023-09-07T07:36:30;12.15;;;7.93;;
28266;SDS011;15525;45.568;5.448;2023-09-07T07:38:56;9.18;;;7.40;;
28266;SDS011;15525;45.568;5.448;2023-09-07T07:41:21;13.45;;;7.47;;
28266;SDS011;15525;45.568;5.448;2023-09-07T07:43:47;11.07;;;7.72;;
28266;SDS011;15525;45.568;5.448;2023-09-07T07:46:12;8.43;;;6.93;;
28266;SDS011;15525;45.568;5.448;2023-09-07T07:48:40;12.95;;;7.57;;
28266;SDS011;15525;45.568;5.448;2023-09-07T07:51:06;9.10;;;7.28;;
28266;SDS011;15525;45.568;5.448;2023-09-07T07:53:34;9.50;;;7.07;;
28266;SDS011;15525;45.568;5.448;2023-09-07T07:55:59;9.70;;;6.90;;
28266;SDS011;15525;45.568;5.448;2023-09-07T07:58:25;10.57;;;7.00;;
28266;SDS011;15525;45.568;5.448;2023-09-07T08:00:50;11.07;;;7.32;;
28266;SDS011;15525;45.568;5.448;2023-09-07T08:03:16;7.80;;;6.97;;
28266;SDS011;15525;45.568;5.448;2023-09-07T08:05:42;9.00;;;7.28;;
28266;SDS011;15525;45.568;5.448;2023-09-07T08:08:08;8.70;;;7.10;;
28266;SDS011;15525;45.568;5.448;2023-09-07T08:10:34;11.32;;;7.80;;
28266;SDS011;15525;45.568;5.448;2023-09-07T08:13:01;8.93;;;6.88;;
28266;SDS011;15525;45.568;5.448;2023-09-07T08:15:28;8.65;;;7.03;;
28266;SDS011;15525;45.568;5.448;2023-09-07T08:17:53;8.27;;;6.70;;
28266;SDS011;15525;45.568;5.448;2023-09-07T08:20:19;8.38;;;6.90;;
28266;SDS011;15525;45.568;5.448;2023-09-07T08:22:44;12.82;;;7.20;;
28266;SDS011;15525;45.568;5.448;2023-09-07T08:25:11;9.60;;;7.70;;
28266;SDS011;15525;45.568;5.448;2023-09-07T08:27:40;12.45;;;7.85;;
28266;SDS011;15525;45.568;5.448;2023-09-07T08:30:11;10.20;;;7.57;;
28266;SDS011;15525;45.568;5.448;2023-09-07T08:32:39;9.23;;;7.57;;
28266;SDS011;15525;45.568;5.448;2023-09-07T08:35:05;8.07;;;7.10;;
28266;SDS011;15525;45.568;5.448;2023-09-07T08:37:35;10.57;;;7.63;;
28266;SDS011;15525;45.568;5.448;2023-09-07T08:40:01;11.85;;;7.68;;
28266;SDS011;15525;45.568;5.448;2023-09-07T08:42:29;9.80;;;7.22;;
28266;SDS011;15525;45.568;5.448;2023-09-07T08:44:55;10.13;;;7.53;;
28266;SDS011;15525;45.568;5.448;2023-09-07T08:47:25;12.40;;;7.63;;
28266;SDS011;15525;45.568;5.448;2023-09-07T08:49:56;9.35;;;7.18;;
28266;SDS011;15525;45.568;5.448;2023-09-07T08:52:22;11.90;;;7.32;;
28266;SDS011;15525;45.568;5.448;2023-09-07T08:54:48;8.27;;;6.80;;
28266;SDS011;15525;45.568;5.448;2023-09-07T08:57:15;8.35;;;6.55;;
28266;SDS011;15525;45.568;5.448;2023-09-07T08:59:42;10.35;;;7.18;;
28266;SDS011;15525;45.568;5.448;2023-09-07T09:02:11;8.18;;;6.95;;
28266;SDS011;15525;45.568;5.448;2023-09-07T09:04:36;7.25;;;6.45;;
28266;SDS011;15525;45.568;5.448;2023-09-07T09:07:02;8.80;;;6.65;;
28266;SDS011;15525;45.568;5.448;2023-09-07T09:09:29;9.18;;;6.88;;
28266;SDS011;15525;45.568;5.448;2023-09-07T09:11:54;10.65;;;7.00;;
28266;SDS011;15525;45.568;5.448;2023-09-07T09:14:20;8.77;;;6.88;;
28266;SDS011;15525;45.568;5.448;2023-09-07T09:16:51;7.78;;;6.93;;
28266;SDS011;15525;45.568;5.448;2023-09-07T09:19:17;9.40;;;6.97;;
28266;SDS011;15525;45.568;5.448;2023-09-07T09:21:46;10.75;;;7.00;;
28266;SDS011;15525;45.568;5.448;2023-09-07T09:24:12;8.45;;;6.70;;
28266;SDS011;15525;45.568;5.448;2023-09-07T09:26:37;7.90;;;6.55;;
28266;SDS011;15525;45.568;5.448;2023-09-07T09:29:03;8.80;;;6.93;;
28266;SDS011;15525;45.568;5.448;2023-09-07T09:31:29;9.73;;;6.75;;
28266;SDS011;15525;45.568;5.448;2023-09-07T09:33:55;8.63;;;6.97;;
28266;SDS011;15525;45.568;5.448;2023-09-07T09:36:21;9.80;;;6.07;;
28266;SDS011;15525;45.568;5.448;2023-09-07T09:38:48;8.07;;;6.60;;
28266;SDS011;15525;45.568;5.448;2023-09-07T09:41:19;8.73;;;6.55;;
28266;SDS011;15525;45.568;5.448;2023-09-07T09:43:46;8.95;;;6.68;;
28266;SDS011;15525;45.568;5.448;2023-09-07T09:46:16;9.18;;;6.32;;
28266;SDS011;15525;45.568;5.448;2023-09-07T09:48:42;9.68;;;6.68;;
28266;SDS011;15525;45.568;5.448;2023-09-07T09:51:08;11.48;;;6.63;;
28266;SDS011;15525;45.568;5.448;2023-09-07T09:53:36;11.75;;;6.97;;
28266;SDS011;15525;45.568;5.448;2023-09-07T09:56:01;7.80;;;6.60;;
28266;SDS011;15525;45.568;5.448;2023-09-07T09:58:27;11.77;;;6.93;;
28266;SDS011;15525;45.568;5.448;2023-09-07T10:00:55;7.50;;;6.35;;
28266;SDS011;15525;45.568;5.448;2023-09-07T10:03:37;8.70;;;6.35;;
28266;SDS011;15525;45.568;5.448;2023-09-07T10:06:11;7.88;;;6.07;;
28266;SDS011;15525;45.568;5.448;2023-09-07T10:08:50;8.18;;;6.25;;
28266;SDS011;15525;45.568;5.448;2023-09-07T10:11:39;10.30;;;6.80;;
28266;SDS011;15525;45.568;5.448;2023-09-07T10:14:05;9.38;;;6.35;;
28266;SDS011;15525;45.568;5.448;2023-09-07T10:16:47;8.32;;;6.20;;
28266;SDS011;15525;45.568;5.448;2023-09-07T10:19:15;8.23;;;6.20;;
28266;SDS011;15525;45.568;5.448;2023-09-07T10:21:42;6.50;;;5.63;;
28266;SDS011;15525;45.568;5.448;2023-09-07T10:24:07;6.68;;;5.93;;
28266;SDS011;15525;45.568;5.448;2023-09-07T10:26:33;7.28;;;6.00;;
28266;SDS011;15525;45.568;5.448;2023-09-07T10:28:59;6.43;;;5.50;;
28266;SDS011;15525;45.568;5.448;2023-09-07T10:31:30;6.68;;;5.15;;
28266;SDS011;15525;45.568;5.448;2023-09-07T10:33:56;5.75;;;5.15;;
28266;SDS011;15525;45.568;5.448;2023-09-07T10:36:33;5.97;;;5.35;;
28266;SDS011;15525;45.568;5.448;2023-09-07T10:39:02;10.02;;;5.50;;
28266;SDS011;15525;45.568;5.448;2023-09-07T10:41:29;7.55;;;5.45;;
28266;SDS011;15525;45.568;5.448;2023-09-07T10:44:05;8.13;;;5.43;;
28266;SDS011;15525;45.568;5.448;2023-09-07T10:46:31;6.05;;;5.30;;
28266;SDS011;15525;45.568;5.448;2023-09-07T10:48:57;6.78;;;5.15;;
28266;SDS011;15525;45.568;5.448;2023-09-07T10:51:22;6.82;;;4.75;;
28266;SDS011;15525;45.568;5.448;2023-09-07T10:53:48;6.38;;;5.30;;
28266;SDS011;15525;45.568;5.448;2023-09-07T10:56:14;7.50;;;5.45;;
28266;SDS011;15525;45.568;5.448;2023-09-07T10:58:39;6.53;;;5.20;;
28266;SDS011;15525;45.568;5.448;2023-09-07T11:01:07;7.13;;;5.75;;
28266;SDS011;15525;45.568;5.448;2023-09-07T11:03:33;8.35;;;5.25;;
28266;SDS011;15525;45.568;5.448;2023-09-07T11:06:12;9.73;;;5.13;;
28266;SDS011;15525;45.568;5.448;2023-09-07T11:08:44;5.78;;;5.18;;
28266;SDS011;15525;45.568;5.448;2023-09-07T11:11:11;10.57;;;5.13;;
28266;SDS011;15525;45.568;5.448;2023-09-07T11:13:37;6.15;;;4.75;;
28266;SDS011;15525;45.568;5.448;2023-09-07T11:16:06;6.47;;;5.38;;
28266;SDS011;15525;45.568;5.448;2023-09-07T11:18:33;7.25;;;4.72;;
28266;SDS011;15525;45.568;5.448;2023-09-07T11:21:01;5.85;;;4.90;;
28266;SDS011;15525;45.568;5.448;2023-09-07T11:23:29;7.50;;;5.07;;
28266;SDS011;15525;45.568;5.448;2023-09-07T11:25:56;5.68;;;4.80;;
28266;SDS011;15525;45.568;5.448;2023-09-07T11:28:23;5.43;;;4.85;;
28266;SDS011;15525;45.568;5.448;2023-09-07T11:30:54;5.82;;;4.90;;
28266;SDS011;15525;45.568;5.448;2023-09-07T11:33:21;5.18;;;4.78;;
28266;SDS011;15525;45.568;5.448;2023-09-07T11:35:47;5.80;;;4.85;;
28266;SDS011;15525;45.568;5.448;2023-09-07T11:38:14;5.75;;;5.15;;
28266;SDS011;15525;45.568;5.448;2023-09-07T11:40:40;7.82;;;4.80;;
28266;SDS011;15525;45.568;5.448;2023-09-07T11:43:13;6.70;;;4.90;;
28266;SDS011;15525;45.568;5.448;2023-09-07T11:45:42;5.75;;;5.13;;
28266;SDS011;15525;45.568;5.448;2023-09-07T11:48:09;8.15;;;5.20;;
28266;SDS011;15525;45.568;5.448;2023-09-07T11:50:35;5.57;;;4.80;;
28266;SDS011;15525;45.568;5.448;2023-09-07T11:53:02;7.28;;;5.18;;
28266;SDS011;15525;45.568;5.448;2023-09-07T11:55:27;6.90;;;5.30;;
28266;SDS011;15525;45.568;5.448;2023-09-07T11:57:53;7.63;;;5.20;;
28266;SDS011;15525;45.568;5.448;2023-09-07T12:00:19;6.45;;;5.13;;
28266;SDS011;15525;45.568;5.448;2023-09-07T12:02:45;6.10;;;5.07;;
28266;SDS011;15525;45.568;5.448;2023-09-07T12:05:10;6.22;;;5.22;;
28266;SDS011;15525;45.568;5.448;2023-09-07T12:07:39;9.38;;;5.13;;
28266;SDS011;15525;45.568;5.448;2023-09-07T12:10:05;6.38;;;5.45;;
28266;SDS011;15525;45.568;5.448;2023-09-07T12:12:35;7.20;;;5.60;;
28266;SDS011;15525;45.568;5.448;2023-09-07T12:15:04;5.90;;;5.30;;
28266;SDS011;15525;45.568;5.448;2023-09-07T12:17:30;7.57;;;5.38;;
28266;SDS011;15525;45.568;5.448;2023-09-07T12:19:56;6.63;;;5.47;;
28266;SDS011;15525;45.568;5.448;2023-09-07T12:22:22;7.85;;;5.35;;
28266;SDS011;15525;45.568;5.448;2023-09-07T12:24:47;5.57;;;4.95;;
28266;SDS011;15525;45.568;5.448;2023-09-07T12:27:13;8.85;;;5.10;;
28266;SDS011;15525;45.568;5.448;2023-09-07T12:29:38;6.85;;;5.30;;
28266;SDS011;15525;45.568;5.448;2023-09-07T12:32:04;6.10;;;4.93;;
28266;SDS011;15525;45.568;5.448;2023-09-07T12:34:30;7.35;;;5.18;;
28266;SDS011;15525;45.568;5.448;2023-09-07T12:36:55;7.47;;;5.25;;
28266;SDS011;15525;45.568;5.448;2023-09-07T12:39:20;12.60;;;5.10;;
28266;SDS011;15525;45.568;5.448;2023-09-07T12:41:46;5.68;;;5.00;;
28266;SDS011;15525;45.568;5.448;2023-09-07T12:44:11;7.35;;;5.30;;
28266;SDS011;15525;45.568;5.448;2023-09-07T12:46:37;6.88;;;5.13;;
28266;SDS011;15525;45.568;5.448;2023-09-07T12:49:03;5.35;;;4.85;;
28266;SDS011;15525;45.568;5.448;2023-09-07T12:51:29;6.25;;;4.93;;
28266;SDS011;15525;45.568;5.448;2023-09-07T12:53:54;7.47;;;5.28;;
28266;SDS011;15525;45.568;5.448;2023-09-07T12:56:20;6.82;;;5.18;;
28266;SDS011;15525;45.568;5.448;2023-09-07T12:58:45;8.15;;;4.95;;
28266;SDS011;15525;45.568;5.448;2023-09-07T13:01:11;5.63;;;5.00;;
28266;SDS011;15525;45.568;5.448;2023-09-07T13:03:40;5.95;;;5.10;;
28266;SDS011;15525;45.568;5.448;2023-09-07T13:06:05;6.00;;;5.10;;
28266;SDS011;15525;45.568;5.448;2023-09-07T13:08:31;7.28;;;5.28;;
28266;SDS011;15525;45.568;5.448;2023-09-07T13:10:56;5.50;;;5.00;;
28266;SDS011;15525;45.568;5.448;2023-09-07T13:13:24;6.43;;;5.28;;
28266;SDS011;15525;45.568;5.448;2023-09-07T13:15:53;8.27;;;5.13;;
28266;SDS011;15525;45.568;5.448;2023-09-07T13:18:22;7.03;;;5.15;;
28266;SDS011;15525;45.568;5.448;2023-09-07T13:20:47;5.05;;;4.60;;
28266;SDS011;15525;45.568;5.448;2023-09-07T13:23:15;6.18;;;5.45;;
28266;SDS011;15525;45.568;5.448;2023-09-07T13:25:40;6.75;;;5.53;;
28266;SDS011;15525;45.568;5.448;2023-09-07T13:28:06;5.93;;;4.97;;
28266;SDS011;15525;45.568;5.448;2023-09-07T13:30:31;6.82;;;4.90;;
28266;SDS011;15525;45.568;5.448;2023-09-07T13:32:57;6.53;;;4.75;;
28266;SDS011;15525;45.568;5.448;2023-09-07T13:35:22;6.07;;;4.85;;
28266;SDS011;15525;45.568;5.448;2023-09-07T13:37:48;6.55;;;5.20;;
28266;SDS011;15525;45.568;5.448;2023-09-07T13:40:13;7.65;;;4.88;;
28266;SDS011;15525;45.568;5.448;2023-09-07T13:42:40;9.00;;;5.40;;
28266;SDS011;15525;45.568;5.448;2023-09-07T13:45:06;5.60;;;5.00;;
28266;SDS011;15525;45.568;5.448;2023-09-07T13:47:32;8.77;;;5.20;;
28266;SDS011;15525;45.568;5.448;2023-09-07T13:49:57;5.65;;;5.07;;
28266;SDS011;15525;45.568;5.448;2023-09-07T13:52:22;5.70;;;5.10;;
28266;SDS011;15525;45.568;5.448;2023-09-07T13:54:48;6.15;;;5.20;;
28266;SDS011;15525;45.568;5.448;2023-09-07T13:57:13;5.82;;;5.22;;
28266;SDS011;15525;45.568;5.448;2023-09-07T13:59:39;6.57;;;5.03;;
28266;SDS011;15525;45.568;5.448;2023-09-07T14:02:04;8.00;;;4.85;;
28266;SDS011;15525;45.568;5.448;2023-09-07T14:04:29;8.55;;;4.85;;
28266;SDS011;15525;45.568;5.448;2023-09-07T14:06:56;6.55;;;5.18;;
28266;SDS011;15525;45.568;5.448;2023-09-07T14:09:21;6.25;;;5.20;;
28266;SDS011;15525;45.568;5.448;2023-09-07T14:11:48;5.60;;;5.10;;
28266;SDS011;15525;45.568;5.448;2023-09-07T14:14:13;6.00;;;4.70;;
28266;SDS011;15525;45.568;5.448;2023-09-07T14:16:40;9.40;;;5.47;;
28266;SDS011;15525;45.568;5.448;2023-09-07T14:19:06;8.57;;;4.93;;
28266;SDS011;15525;45.568;5.448;2023-09-07T14:21:31;5.72;;;5.07;;
28266;SDS011;15525;45.568;5.448;2023-09-07T14:23:56;6.55;;;4.43;;
28266;SDS011;15525;45.568;5.448;2023-09-07T14:26:22;5.05;;;4.50;;
28266;SDS011;15525;45.568;5.448;2023-09-07T14:28:47;8.57;;;4.90;;
28266;SDS011;15525;45.568;5.448;2023-09-07T14:31:12;6.97;;;4.78;;
28266;SDS011;15525;45.568;5.448;2023-09-07T14:33:38;5.93;;;4.90;;
28266;SDS011;15525;45.568;5.448;2023-09-07T14:36:06;6.60;;;4.90;;